Terminal Aerodrome Forecast
Issued by NWS Charleston, WV

Current Version | Previous Version | Graphics & Text | Print | Product List | Glossary On
Versions: 1 2 3 4 5 6 7 8 9 10 11 12 13 14 15 16 17 18 19 20 21 22 23 24 25
000
FTUS41 KRLX 262330
TAFBKW
TAF
KBKW 262330Z 2700/2724 22007KT P6SM VCSH BKN050
     FM270100 17006KT P6SM VCTS SCT035CB BKN070
     FM270300 17007KT 4SM SHRA BR VCTS BKN025CB OVC050
     FM270800 19005KT 4SM BR SCT001 BKN018
     FM271400 23006KT P6SM BKN025
     FM271900 23007KT P6SM BKN035=

USA.gov is the U.S. government's official web portal to all federal, state and local government web resources and services.